MMVA/VSA METAR and TAF weather

Enter ICAO airport designator
Station Type Date Time Source
MMVA METAR 2019/06/26 15:40 UTC NOAA

MMVA 261540Z 09009KT 7SM SKC 30/22 A2995


Station Type Date Time Source
MMVA Decoded METAR 2019/06/26 15:40 UTC NOAA

Villahermosa , Mexico (MMVA) 18-00N 092-49W
Jun 26, 2019 - 11:40 AM EDT / 2019.06.26 1540 UTC
Wind: from the E (090 degrees) at 10 MPH (9 KT):0
Visibility: 7 mile(s):0
Sky conditions: clear
Temperature: 86 F (30 C)
Heat index: 91.8 F (33.2 C):1
Dew Point: 71 F (22 C)
Relative Humidity: 62%
Pressure (altimeter): 29.95 in. Hg (1014 hPa)
ob: MMVA 261540Z 09009KT 7SM SKC 30/22 A2995
cycle: 15

Station Type Date Time Source
MMVA TAF 2019/06/26 06:19 UTC NOAA

TAF MMVA 260512Z 2606/2706 00000KT 6SM HZ SCT200
TEMPO 2610/2614 3SM HZ SCT015
FM261800 08010KT 6SM HZ SCT025 BKN200
TEMPO 2622/2702 5SM TSRA BKN015CB
FM270400 06005KT 6SM HZ SCT015 BKN080 BKN200

Example: see airport list